sensor_id;sensor_type;location;lat;lon;timestamp;P1;durP1;ratioP1;P2;durP2;ratioP2
73550;SDS011;61816;53.582;10.096;2023-08-06T00:01:24;5.82;;;3.13;;
73550;SDS011;61816;53.582;10.096;2023-08-06T00:03:50;5.32;;;2.88;;
73550;SDS011;61816;53.582;10.096;2023-08-06T00:06:16;4.47;;;2.80;;
73550;SDS011;61816;53.582;10.096;2023-08-06T00:08:42;4.57;;;2.83;;
73550;SDS011;61816;53.582;10.096;2023-08-06T00:11:07;8.13;;;3.30;;
73550;SDS011;61816;53.582;10.096;2023-08-06T00:13:32;5.95;;;3.42;;
73550;SDS011;61816;53.582;10.096;2023-08-06T00:16:10;5.75;;;3.35;;
73550;SDS011;61816;53.582;10.096;2023-08-06T00:18:37;6.88;;;4.13;;
73550;SDS011;61816;53.582;10.096;2023-08-06T00:21:03;14.43;;;4.63;;
73550;SDS011;61816;53.582;10.096;2023-08-06T00:23:28;8.57;;;4.65;;
73550;SDS011;61816;53.582;10.096;2023-08-06T00:25:54;10.30;;;5.30;;
73550;SDS011;61816;53.582;10.096;2023-08-06T00:28:19;6.30;;;4.43;;
73550;SDS011;61816;53.582;10.096;2023-08-06T00:30:44;10.80;;;5.38;;
73550;SDS011;61816;53.582;10.096;2023-08-06T00:33:09;9.23;;;6.03;;
73550;SDS011;61816;53.582;10.096;2023-08-06T00:35:35;9.80;;;5.40;;
73550;SDS011;61816;53.582;10.096;2023-08-06T00:38:00;13.60;;;5.50;;
73550;SDS011;61816;53.582;10.096;2023-08-06T00:40:25;13.57;;;6.82;;
73550;SDS011;61816;53.582;10.096;2023-08-06T00:42:53;9.25;;;5.88;;
73550;SDS011;61816;53.582;10.096;2023-08-06T00:45:19;9.55;;;6.35;;
73550;SDS011;61816;53.582;10.096;2023-08-06T00:47:44;10.75;;;6.55;;
73550;SDS011;61816;53.582;10.096;2023-08-06T00:50:12;18.38;;;7.00;;
73550;SDS011;61816;53.582;10.096;2023-08-06T00:52:37;10.80;;;6.07;;
73550;SDS011;61816;53.582;10.096;2023-08-06T00:55:03;8.90;;;6.00;;
73550;SDS011;61816;53.582;10.096;2023-08-06T00:57:29;8.93;;;6.57;;
73550;SDS011;61816;53.582;10.096;2023-08-06T00:59:54;9.23;;;6.65;;
73550;SDS011;61816;53.582;10.096;2023-08-06T01:02:20;9.55;;;6.32;;
73550;SDS011;61816;53.582;10.096;2023-08-06T01:04:45;12.68;;;6.13;;
73550;SDS011;61816;53.582;10.096;2023-08-06T01:10:39;11.23;;;6.82;;
73550;SDS011;61816;53.582;10.096;2023-08-06T01:12:51;9.25;;;6.47;;
73550;SDS011;61816;53.582;10.096;2023-08-06T01:15:28;12.95;;;7.65;;
73550;SDS011;61816;53.582;10.096;2023-08-06T01:17:58;8.63;;;6.25;;
73550;SDS011;61816;53.582;10.096;2023-08-06T01:20:29;10.75;;;6.63;;
73550;SDS011;61816;53.582;10.096;2023-08-06T01:22:55;9.60;;;6.07;;
73550;SDS011;61816;53.582;10.096;2023-08-06T01:25:21;10.05;;;6.30;;
73550;SDS011;61816;53.582;10.096;2023-08-06T01:27:50;12.40;;;7.70;;
73550;SDS011;61816;53.582;10.096;2023-08-06T01:30:27;12.85;;;9.00;;
73550;SDS011;61816;53.582;10.096;2023-08-06T01:32:58;12.43;;;8.45;;
73550;SDS011;61816;53.582;10.096;2023-08-06T01:35:25;10.65;;;7.75;;
73550;SDS011;61816;53.582;10.096;2023-08-06T01:37:52;18.30;;;9.63;;
73550;SDS011;61816;53.582;10.096;2023-08-06T01:40:18;10.88;;;7.63;;
73550;SDS011;61816;53.582;10.096;2023-08-06T01:42:43;11.05;;;7.53;;
73550;SDS011;61816;53.582;10.096;2023-08-06T01:45:09;9.93;;;6.85;;
73550;SDS011;61816;53.582;10.096;2023-08-06T01:47:35;16.05;;;9.32;;
73550;SDS011;61816;53.582;10.096;2023-08-06T01:50:01;11.80;;;7.68;;
73550;SDS011;61816;53.582;10.096;2023-08-06T01:52:26;12.18;;;8.50;;
73550;SDS011;61816;53.582;10.096;2023-08-06T01:54:52;9.30;;;6.75;;
73550;SDS011;61816;53.582;10.096;2023-08-06T01:57:17;17.08;;;7.95;;
73550;SDS011;61816;53.582;10.096;2023-08-06T01:59:43;9.32;;;6.70;;
73550;SDS011;61816;53.582;10.096;2023-08-06T02:02:08;13.20;;;6.88;;
73550;SDS011;61816;53.582;10.096;2023-08-06T02:04:33;20.60;;;8.20;;
73550;SDS011;61816;53.582;10.096;2023-08-06T02:06:59;13.63;;;8.65;;
73550;SDS011;61816;53.582;10.096;2023-08-06T02:09:24;11.80;;;7.50;;
73550;SDS011;61816;53.582;10.096;2023-08-06T02:11:49;13.63;;;7.45;;
73550;SDS011;61816;53.582;10.096;2023-08-06T02:14:15;11.68;;;6.80;;
73550;SDS011;61816;53.582;10.096;2023-08-06T02:16:40;15.70;;;8.32;;
73550;SDS011;61816;53.582;10.096;2023-08-06T02:19:06;12.55;;;7.60;;
73550;SDS011;61816;53.582;10.096;2023-08-06T02:21:31;12.55;;;7.72;;
73550;SDS011;61816;53.582;10.096;2023-08-06T02:23:56;9.40;;;6.50;;
73550;SDS011;61816;53.582;10.096;2023-08-06T02:26:21;16.25;;;7.97;;
73550;SDS011;61816;53.582;10.096;2023-08-06T02:28:47;16.38;;;8.30;;
73550;SDS011;61816;53.582;10.096;2023-08-06T02:31:12;10.50;;;7.65;;
73550;SDS011;61816;53.582;10.096;2023-08-06T02:33:37;12.38;;;7.78;;
73550;SDS011;61816;53.582;10.096;2023-08-06T02:36:03;12.52;;;7.68;;
73550;SDS011;61816;53.582;10.096;2023-08-06T02:38:29;10.77;;;7.20;;
73550;SDS011;61816;53.582;10.096;2023-08-06T02:40:55;18.00;;;7.88;;
73550;SDS011;61816;53.582;10.096;2023-08-06T02:43:21;16.75;;;7.85;;
73550;SDS011;61816;53.582;10.096;2023-08-06T02:45:46;12.15;;;7.15;;
73550;SDS011;61816;53.582;10.096;2023-08-06T02:48:12;15.45;;;8.32;;
73550;SDS011;61816;53.582;10.096;2023-08-06T02:50:37;17.08;;;7.95;;
73550;SDS011;61816;53.582;10.096;2023-08-06T02:53:04;16.63;;;8.27;;
73550;SDS011;61816;53.582;10.096;2023-08-06T02:55:30;22.67;;;9.00;;
73550;SDS011;61816;53.582;10.096;2023-08-06T02:57:55;10.10;;;7.10;;
73550;SDS011;61816;53.582;10.096;2023-08-06T03:00:21;16.48;;;8.40;;
73550;SDS011;61816;53.582;10.096;2023-08-06T03:02:46;15.63;;;8.43;;
73550;SDS011;61816;53.582;10.096;2023-08-06T03:05:11;17.25;;;7.05;;
73550;SDS011;61816;53.582;10.096;2023-08-06T03:07:37;11.27;;;6.60;;
73550;SDS011;61816;53.582;10.096;2023-08-06T03:10:02;11.65;;;6.60;;
73550;SDS011;61816;53.582;10.096;2023-08-06T03:12:28;17.60;;;8.82;;
73550;SDS011;61816;53.582;10.096;2023-08-06T03:14:53;13.52;;;7.60;;
73550;SDS011;61816;53.582;10.096;2023-08-06T03:17:19;16.65;;;8.60;;
73550;SDS011;61816;53.582;10.096;2023-08-06T03:19:44;14.30;;;7.75;;
73550;SDS011;61816;53.582;10.096;2023-08-06T03:22:09;10.93;;;7.43;;
73550;SDS011;61816;53.582;10.096;2023-08-06T03:24:35;17.23;;;7.95;;
73550;SDS011;61816;53.582;10.096;2023-08-06T03:27:00;15.52;;;7.40;;
73550;SDS011;61816;53.582;10.096;2023-08-06T03:29:25;9.80;;;6.72;;
73550;SDS011;61816;53.582;10.096;2023-08-06T03:31:51;14.55;;;7.13;;
73550;SDS011;61816;53.582;10.096;2023-08-06T03:34:17;15.95;;;7.30;;
73550;SDS011;61816;53.582;10.096;2023-08-06T03:36:42;9.30;;;6.90;;
73550;SDS011;61816;53.582;10.096;2023-08-06T03:39:08;12.07;;;7.15;;
73550;SDS011;61816;53.582;10.096;2023-08-06T03:41:33;13.93;;;7.38;;
73550;SDS011;61816;53.582;10.096;2023-08-06T03:43:59;12.23;;;7.38;;
73550;SDS011;61816;53.582;10.096;2023-08-06T03:46:25;15.77;;;7.63;;
73550;SDS011;61816;53.582;10.096;2023-08-06T03:48:51;14.57;;;6.32;;
73550;SDS011;61816;53.582;10.096;2023-08-06T03:51:16;16.65;;;7.32;;
73550;SDS011;61816;53.582;10.096;2023-08-06T03:53:42;12.50;;;6.80;;
73550;SDS011;61816;53.582;10.096;2023-08-06T03:56:07;11.10;;;6.05;;
73550;SDS011;61816;53.582;10.096;2023-08-06T03:58:32;15.25;;;7.18;;
73550;SDS011;61816;53.582;10.096;2023-08-06T04:01:01;12.25;;;6.85;;
73550;SDS011;61816;53.582;10.096;2023-08-06T04:03:28;11.95;;;6.93;;
73550;SDS011;61816;53.582;10.096;2023-08-06T04:05:54;16.63;;;7.90;;
73550;SDS011;61816;53.582;10.096;2023-08-06T04:08:19;8.15;;;6.40;;
73550;SDS011;61816;53.582;10.096;2023-08-06T04:10:44;12.93;;;6.13;;
73550;SDS011;61816;53.582;10.096;2023-08-06T04:13:10;13.50;;;7.97;;
73550;SDS011;61816;53.582;10.096;2023-08-06T04:15:35;12.20;;;6.80;;
73550;SDS011;61816;53.582;10.096;2023-08-06T04:18:00;14.85;;;7.43;;
73550;SDS011;61816;53.582;10.096;2023-08-06T04:20:26;12.65;;;7.45;;
73550;SDS011;61816;53.582;10.096;2023-08-06T04:22:54;17.20;;;7.35;;
73550;SDS011;61816;53.582;10.096;2023-08-06T04:25:20;16.40;;;7.93;;
73550;SDS011;61816;53.582;10.096;2023-08-06T04:27:49;21.55;;;8.15;;
73550;SDS011;61816;53.582;10.096;2023-08-06T04:30:15;11.40;;;7.82;;
73550;SDS011;61816;53.582;10.096;2023-08-06T04:32:40;11.55;;;6.78;;
73550;SDS011;61816;53.582;10.096;2023-08-06T04:35:06;17.42;;;7.35;;
73550;SDS011;61816;53.582;10.096;2023-08-06T04:37:32;13.68;;;7.38;;
73550;SDS011;61816;53.582;10.096;2023-08-06T04:39:57;15.80;;;9.35;;
73550;SDS011;61816;53.582;10.096;2023-08-06T04:42:22;19.77;;;8.65;;
73550;SDS011;61816;53.582;10.096;2023-08-06T04:44:48;14.70;;;6.72;;
73550;SDS011;61816;53.582;10.096;2023-08-06T04:47:13;17.55;;;8.85;;
73550;SDS011;61816;53.582;10.096;2023-08-06T04:49:38;12.65;;;7.38;;
73550;SDS011;61816;53.582;10.096;2023-08-06T04:52:04;19.85;;;8.38;;
73550;SDS011;61816;53.582;10.096;2023-08-06T04:54:30;12.77;;;7.20;;
73550;SDS011;61816;53.582;10.096;2023-08-06T04:56:55;20.15;;;7.60;;
73550;SDS011;61816;53.582;10.096;2023-08-06T04:59:20;28.63;;;9.82;;
73550;SDS011;61816;53.582;10.096;2023-08-06T05:01:46;17.05;;;8.73;;
73550;SDS011;61816;53.582;10.096;2023-08-06T05:04:11;23.75;;;7.88;;
73550;SDS011;61816;53.582;10.096;2023-08-06T05:06:36;18.90;;;8.38;;
73550;SDS011;61816;53.582;10.096;2023-08-06T05:09:03;23.38;;;9.52;;
73550;SDS011;61816;53.582;10.096;2023-08-06T05:11:29;16.63;;;9.10;;
73550;SDS011;61816;53.582;10.096;2023-08-06T05:13:55;23.40;;;9.13;;
73550;SDS011;61816;53.582;10.096;2023-08-06T05:16:20;16.63;;;9.30;;
73550;SDS011;61816;53.582;10.096;2023-08-06T05:18:45;18.42;;;9.50;;
73550;SDS011;61816;53.582;10.096;2023-08-06T05:21:11;18.98;;;10.32;;
73550;SDS011;61816;53.582;10.096;2023-08-06T05:23:36;19.02;;;7.78;;
73550;SDS011;61816;53.582;10.096;2023-08-06T05:26:01;14.52;;;8.52;;
73550;SDS011;61816;53.582;10.096;2023-08-06T05:28:27;20.02;;;9.05;;
73550;SDS011;61816;53.582;10.096;2023-08-06T05:30:52;16.65;;;9.68;;
73550;SDS011;61816;53.582;10.096;2023-08-06T05:33:18;28.13;;;9.88;;
73550;SDS011;61816;53.582;10.096;2023-08-06T05:35:43;17.27;;;8.52;;
73550;SDS011;61816;53.582;10.096;2023-08-06T05:38:08;19.60;;;8.40;;
73550;SDS011;61816;53.582;10.096;2023-08-06T05:40:34;20.50;;;9.52;;
73550;SDS011;61816;53.582;10.096;2023-08-06T05:42:59;16.95;;;8.27;;
73550;SDS011;61816;53.582;10.096;2023-08-06T05:45:24;22.05;;;8.90;;
73550;SDS011;61816;53.582;10.096;2023-08-06T05:47:50;16.13;;;8.75;;
73550;SDS011;61816;53.582;10.096;2023-08-06T05:50:16;19.67;;;9.40;;
73550;SDS011;61816;53.582;10.096;2023-08-06T05:52:41;21.52;;;8.60;;
73550;SDS011;61816;53.582;10.096;2023-08-06T05:55:06;22.17;;;9.52;;
73550;SDS011;61816;53.582;10.096;2023-08-06T05:57:32;17.67;;;9.55;;
73550;SDS011;61816;53.582;10.096;2023-08-06T05:59:57;20.40;;;9.02;;
73550;SDS011;61816;53.582;10.096;2023-08-06T06:02:23;22.05;;;9.77;;
73550;SDS011;61816;53.582;10.096;2023-08-06T06:04:48;15.70;;;9.60;;
73550;SDS011;61816;53.582;10.096;2023-08-06T06:07:13;19.95;;;9.70;;
73550;SDS011;61816;53.582;10.096;2023-08-06T06:09:39;19.73;;;9.52;;
73550;SDS011;61816;53.582;10.096;2023-08-06T06:12:05;23.52;;;10.70;;
73550;SDS011;61816;53.582;10.096;2023-08-06T06:14:31;16.42;;;9.45;;
73550;SDS011;61816;53.582;10.096;2023-08-06T06:16:56;19.30;;;8.15;;
73550;SDS011;61816;53.582;10.096;2023-08-06T06:19:22;16.95;;;8.77;;
73550;SDS011;61816;53.582;10.096;2023-08-06T06:21:47;20.27;;;8.48;;
73550;SDS011;61816;53.582;10.096;2023-08-06T06:24:12;17.77;;;9.45;;
73550;SDS011;61816;53.582;10.096;2023-08-06T06:26:38;19.35;;;8.68;;
73550;SDS011;61816;53.582;10.096;2023-08-06T06:29:03;16.85;;;8.82;;
73550;SDS011;61816;53.582;10.096;2023-08-06T06:31:29;22.42;;;8.93;;
73550;SDS011;61816;53.582;10.096;2023-08-06T06:33:54;21.17;;;8.15;;
73550;SDS011;61816;53.582;10.096;2023-08-06T06:36:20;20.27;;;9.48;;
73550;SDS011;61816;53.582;10.096;2023-08-06T06:38:45;11.30;;;8.55;;
73550;SDS011;61816;53.582;10.096;2023-08-06T06:41:11;16.05;;;8.25;;
73550;SDS011;61816;53.582;10.096;2023-08-06T06:43:36;18.60;;;8.02;;
73550;SDS011;61816;53.582;10.096;2023-08-06T06:46:03;14.85;;;8.45;;
73550;SDS011;61816;53.582;10.096;2023-08-06T06:48:29;16.27;;;8.63;;
73550;SDS011;61816;53.582;10.096;2023-08-06T06:50:56;23.33;;;8.93;;
73550;SDS011;61816;53.582;10.096;2023-08-06T06:53:21;21.85;;;9.00;;
73550;SDS011;61816;53.582;10.096;2023-08-06T06:55:53;26.17;;;10.70;;
73550;SDS011;61816;53.582;10.096;2023-08-06T06:58:19;17.42;;;9.02;;
73550;SDS011;61816;53.582;10.096;2023-08-06T07:00:45;13.88;;;7.60;;
73550;SDS011;61816;53.582;10.096;2023-08-06T07:03:11;14.32;;;8.75;;
73550;SDS011;61816;53.582;10.096;2023-08-06T07:05:36;16.88;;;8.82;;
73550;SDS011;61816;53.582;10.096;2023-08-06T07:08:01;14.00;;;8.65;;
73550;SDS011;61816;53.582;10.096;2023-08-06T07:10:27;21.13;;;8.90;;
73550;SDS011;61816;53.582;10.096;2023-08-06T07:12:52;19.33;;;9.00;;
73550;SDS011;61816;53.582;10.096;2023-08-06T07:15:17;16.92;;;9.27;;
73550;SDS011;61816;53.582;10.096;2023-08-06T07:17:43;13.95;;;8.23;;
73550;SDS011;61816;53.582;10.096;2023-08-06T07:20:08;23.38;;;8.23;;
73550;SDS011;61816;53.582;10.096;2023-08-06T07:22:34;16.98;;;8.93;;
73550;SDS011;61816;53.582;10.096;2023-08-06T07:25:00;18.50;;;8.43;;
73550;SDS011;61816;53.582;10.096;2023-08-06T07:27:25;18.02;;;9.07;;
73550;SDS011;61816;53.582;10.096;2023-08-06T07:29:50;20.70;;;9.68;;
73550;SDS011;61816;53.582;10.096;2023-08-06T07:32:16;18.60;;;8.55;;
73550;SDS011;61816;53.582;10.096;2023-08-06T07:34:41;17.95;;;7.70;;
73550;SDS011;61816;53.582;10.096;2023-08-06T07:37:06;20.77;;;8.45;;
73550;SDS011;61816;53.582;10.096;2023-08-06T07:39:32;17.40;;;8.50;;
73550;SDS011;61816;53.582;10.096;2023-08-06T07:41:57;17.77;;;7.97;;
73550;SDS011;61816;53.582;10.096;2023-08-06T07:44:22;22.00;;;9.73;;
73550;SDS011;61816;53.582;10.096;2023-08-06T07:46:49;19.67;;;8.60;;
73550;SDS011;61816;53.582;10.096;2023-08-06T07:49:14;20.83;;;8.93;;
73550;SDS011;61816;53.582;10.096;2023-08-06T07:51:39;30.42;;;8.52;;
73550;SDS011;61816;53.582;10.096;2023-08-06T07:54:05;18.13;;;8.73;;
73550;SDS011;61816;53.582;10.096;2023-08-06T07:56:31;13.77;;;8.48;;
73550;SDS011;61816;53.582;10.096;2023-08-06T07:58:56;18.90;;;8.75;;
73550;SDS011;61816;53.582;10.096;2023-08-06T08:01:21;20.50;;;9.00;;
73550;SDS011;61816;53.582;10.096;2023-08-06T08:03:47;17.42;;;7.75;;
73550;SDS011;61816;53.582;10.096;2023-08-06T08:06:12;18.73;;;8.35;;
73550;SDS011;61816;53.582;10.096;2023-08-06T08:08:37;19.80;;;8.40;;
73550;SDS011;61816;53.582;10.096;2023-08-06T08:11:04;13.77;;;8.05;;
73550;SDS011;61816;53.582;10.096;2023-08-06T08:13:29;19.23;;;8.40;;
73550;SDS011;61816;53.582;10.096;2023-08-06T08:15:58;15.80;;;8.27;;
73550;SDS011;61816;53.582;10.096;2023-08-06T08:18:24;22.23;;;8.88;;
73550;SDS011;61816;53.582;10.096;2023-08-06T08:20:50;17.40;;;9.27;;
73550;SDS011;61816;53.582;10.096;2023-08-06T08:23:16;13.75;;;7.88;;
73550;SDS011;61816;53.582;10.096;2023-08-06T08:25:41;14.25;;;7.28;;
73550;SDS011;61816;53.582;10.096;2023-08-06T08:28:06;20.40;;;7.75;;
73550;SDS011;61816;53.582;10.096;2023-08-06T08:30:32;18.30;;;8.38;;
73550;SDS011;61816;53.582;10.096;2023-08-06T08:32:57;15.82;;;8.00;;
73550;SDS011;61816;53.582;10.096;2023-08-06T08:35:23;23.52;;;9.63;;
73550;SDS011;61816;53.582;10.096;2023-08-06T08:37:48;30.05;;;9.13;;
73550;SDS011;61816;53.582;10.096;2023-08-06T08:40:14;20.35;;;8.60;;
73550;SDS011;61816;53.582;10.096;2023-08-06T08:42:40;19.42;;;8.85;;
73550;SDS011;61816;53.582;10.096;2023-08-06T08:45:06;21.40;;;10.10;;
73550;SDS011;61816;53.582;10.096;2023-08-06T08:47:37;23.67;;;9.60;;
73550;SDS011;61816;53.582;10.096;2023-08-06T08:50:03;16.45;;;7.85;;
73550;SDS011;61816;53.582;10.096;2023-08-06T08:52:31;26.02;;;9.57;;
73550;SDS011;61816;53.582;10.096;2023-08-06T08:54:59;17.52;;;8.52;;
73550;SDS011;61816;53.582;10.096;2023-08-06T08:57:27;17.60;;;8.77;;
73550;SDS011;61816;53.582;10.096;2023-08-06T08:59:52;24.13;;;15.05;;
73550;SDS011;61816;53.582;10.096;2023-08-06T09:02:17;18.10;;;9.00;;
73550;SDS011;61816;53.582;10.096;2023-08-06T09:04:46;14.48;;;8.10;;
73550;SDS011;61816;53.582;10.096;2023-08-06T09:07:13;20.92;;;8.60;;
73550;SDS011;61816;53.582;10.096;2023-08-06T09:09:43;15.43;;;8.85;;
73550;SDS011;61816;53.582;10.096;2023-08-06T09:12:14;20.88;;;9.60;;
73550;SDS011;61816;53.582;10.096;2023-08-06T09:14:40;17.77;;;9.35;;
73550;SDS011;61816;53.582;10.096;2023-08-06T09:17:07;15.82;;;8.30;;
73550;SDS011;61816;53.582;10.096;2023-08-06T09:19:34;14.70;;;8.50;;
73550;SDS011;61816;53.582;10.096;2023-08-06T09:21:59;16.00;;;8.32;;
73550;SDS011;61816;53.582;10.096;2023-08-06T09:24:24;11.68;;;8.02;;
73550;SDS011;61816;53.582;10.096;2023-08-06T09:26:54;17.83;;;7.85;;
73550;SDS011;61816;53.582;10.096;2023-08-06T09:29:20;23.67;;;8.95;;
73550;SDS011;61816;53.582;10.096;2023-08-06T09:31:49;20.08;;;9.10;;
73550;SDS011;61816;53.582;10.096;2023-08-06T09:34:19;18.00;;;7.90;;
73550;SDS011;61816;53.582;10.096;2023-08-06T09:36:50;27.67;;;13.20;;
73550;SDS011;61816;53.582;10.096;2023-08-06T09:39:20;15.82;;;8.85;;
73550;SDS011;61816;53.582;10.096;2023-08-06T09:41:47;14.63;;;8.93;;
73550;SDS011;61816;53.582;10.096;2023-08-06T09:44:15;17.60;;;8.43;;
73550;SDS011;61816;53.582;10.096;2023-08-06T09:46:47;23.27;;;9.77;;
73550;SDS011;61816;53.582;10.096;2023-08-06T09:49:14;16.83;;;8.50;;
73550;SDS011;61816;53.582;10.096;2023-08-06T09:51:40;15.32;;;8.95;;
73550;SDS011;61816;53.582;10.096;2023-08-06T09:54:06;19.65;;;9.45;;
73550;SDS011;61816;53.582;10.096;2023-08-06T09:56:35;16.77;;;9.15;;
73550;SDS011;61816;53.582;10.096;2023-08-06T09:59:04;20.60;;;11.10;;
73550;SDS011;61816;53.582;10.096;2023-08-06T10:01:31;19.98;;;11.05;;
73550;SDS011;61816;53.582;10.096;2023-08-06T10:03:58;18.55;;;10.75;;
73550;SDS011;61816;53.582;10.096;2023-08-06T10:06:25;18.67;;;10.52;;
73550;SDS011;61816;53.582;10.096;2023-08-06T10:08:51;20.10;;;11.68;;
73550;SDS011;61816;53.582;10.096;2023-08-06T10:11:17;18.23;;;11.55;;
73550;SDS011;61816;53.582;10.096;2023-08-06T10:13:43;25.33;;;12.52;;
73550;SDS011;61816;53.582;10.096;2023-08-06T10:16:09;24.15;;;12.45;;
73550;SDS011;61816;53.582;10.096;2023-08-06T10:18:35;35.38;;;13.25;;
73550;SDS011;61816;53.582;10.096;2023-08-06T10:21:04;19.67;;;12.90;;
73550;SDS011;61816;53.582;10.096;2023-08-06T10:23:33;27.10;;;12.15;;
73550;SDS011;61816;53.582;10.096;2023-08-06T10:26:02;24.08;;;13.13;;
73550;SDS011;61816;53.582;10.096;2023-08-06T10:28:35;20.13;;;12.18;;
73550;SDS011;61816;53.582;10.096;2023-08-06T10:31:02;21.23;;;12.30;;
73550;SDS011;61816;53.582;10.096;2023-08-06T10:33:50;21.63;;;15.10;;
73550;SDS011;61816;53.582;10.096;2023-08-06T10:36:15;21.35;;;14.18;;
73550;SDS011;61816;53.582;10.096;2023-08-06T10:38:44;23.77;;;13.32;;
73550;SDS011;61816;53.582;10.096;2023-08-06T10:41:14;20.35;;;11.90;;
73550;SDS011;61816;53.582;10.096;2023-08-06T10:43:42;29.63;;;13.60;;
73550;SDS011;61816;53.582;10.096;2023-08-06T10:46:10;19.38;;;12.27;;
73550;SDS011;61816;53.582;10.096;2023-08-06T10:48:45;20.20;;;13.43;;
73550;SDS011;61816;53.582;10.096;2023-08-06T10:51:11;19.63;;;12.25;;
73550;SDS011;61816;53.582;10.096;2023-08-06T10:53:41;22.70;;;13.90;;
73550;SDS011;61816;53.582;10.096;2023-08-06T10:58:42;23.17;;;11.02;;
73550;SDS011;61816;53.582;10.096;2023-08-06T11:01:08;14.90;;;10.77;;
73550;SDS011;61816;53.582;10.096;2023-08-06T11:03:34;16.48;;;11.05;;
73550;SDS011;61816;53.582;10.096;2023-08-06T11:06:00;18.92;;;11.38;;
73550;SDS011;61816;53.582;10.096;2023-08-06T11:08:26;12.05;;;9.43;;
73550;SDS011;61816;53.582;10.096;2023-08-06T11:11:11;13.00;;;10.85;;
73550;SDS011;61816;53.582;10.096;2023-08-06T11:13:45;17.80;;;12.02;;
73550;SDS011;61816;53.582;10.096;2023-08-06T11:16:12;15.13;;;11.82;;
73550;SDS011;61816;53.582;10.096;2023-08-06T11:18:39;19.08;;;10.68;;
73550;SDS011;61816;53.582;10.096;2023-08-06T11:21:06;14.20;;;10.05;;
73550;SDS011;61816;53.582;10.096;2023-08-06T11:23:33;16.75;;;9.93;;
73550;SDS011;61816;53.582;10.096;2023-08-06T11:25:59;15.15;;;9.18;;
73550;SDS011;61816;53.582;10.096;2023-08-06T11:28:25;14.07;;;9.18;;
73550;SDS011;61816;53.582;10.096;2023-08-06T11:30:51;13.95;;;9.65;;
73550;SDS011;61816;53.582;10.096;2023-08-06T11:33:23;12.05;;;9.13;;
73550;SDS011;61816;53.582;10.096;2023-08-06T11:35:52;14.02;;;9.45;;
73550;SDS011;61816;53.582;10.096;2023-08-06T11:38:20;14.15;;;9.68;;
73550;SDS011;61816;53.582;10.096;2023-08-06T11:40:45;16.35;;;9.38;;
73550;SDS011;61816;53.582;10.096;2023-08-06T11:43:12;17.85;;;9.93;;
73550;SDS011;61816;53.582;10.096;2023-08-06T11:45:38;14.60;;;9.52;;
73550;SDS011;61816;53.582;10.096;2023-08-06T11:48:05;12.73;;;9.95;;
73550;SDS011;61816;53.582;10.096;2023-08-06T11:50:31;15.38;;;10.10;;
73550;SDS011;61816;53.582;10.096;2023-08-06T11:53:01;22.58;;;10.98;;
73550;SDS011;61816;53.582;10.096;2023-08-06T11:55:27;14.50;;;10.20;;
73550;SDS011;61816;53.582;10.096;2023-08-06T11:57:53;14.63;;;9.75;;
73550;SDS011;61816;53.582;10.096;2023-08-06T12:00:19;16.92;;;10.18;;
73550;SDS011;61816;53.582;10.096;2023-08-06T12:02:48;15.50;;;9.57;;
73550;SDS011;61816;53.582;10.096;2023-08-06T12:07:51;14.32;;;10.02;;
73550;SDS011;61816;53.582;10.096;2023-08-06T12:10:17;16.73;;;10.05;;
73550;SDS011;61816;53.582;10.096;2023-08-06T12:12:44;16.13;;;9.20;;
73550;SDS011;61816;53.582;10.096;2023-08-06T12:15:10;16.70;;;9.45;;
73550;SDS011;61816;53.582;10.096;2023-08-06T12:17:36;14.77;;;9.40;;
73550;SDS011;61816;53.582;10.096;2023-08-06T12:20:03;15.65;;;10.00;;
73550;SDS011;61816;53.582;10.096;2023-08-06T12:22:32;23.10;;;10.63;;
73550;SDS011;61816;53.582;10.096;2023-08-06T12:25:03;15.00;;;8.50;;
73550;SDS011;61816;53.582;10.096;2023-08-06T12:27:36;20.48;;;10.07;;
73550;SDS011;61816;53.582;10.096;2023-08-06T12:30:03;20.50;;;9.48;;
73550;SDS011;61816;53.582;10.096;2023-08-06T12:32:29;17.10;;;10.18;;
73550;SDS011;61816;53.582;10.096;2023-08-06T12:34:55;17.27;;;10.38;;
73550;SDS011;61816;53.582;10.096;2023-08-06T12:37:20;17.35;;;10.35;;
73550;SDS011;61816;53.582;10.096;2023-08-06T12:39:46;18.20;;;8.85;;
73550;SDS011;61816;53.582;10.096;2023-08-06T12:42:11;13.98;;;8.65;;
73550;SDS011;61816;53.582;10.096;2023-08-06T12:44:37;18.70;;;9.07;;
73550;SDS011;61816;53.582;10.096;2023-08-06T12:47:02;16.45;;;8.93;;
73550;SDS011;61816;53.582;10.096;2023-08-06T12:49:27;16.00;;;7.95;;
73550;SDS011;61816;53.582;10.096;2023-08-06T12:51:54;15.98;;;8.45;;
73550;SDS011;61816;53.582;10.096;2023-08-06T12:54:19;15.68;;;8.07;;
73550;SDS011;61816;53.582;10.096;2023-08-06T12:56:46;15.60;;;7.30;;
73550;SDS011;61816;53.582;10.096;2023-08-06T12:59:13;13.40;;;7.88;;
73550;SDS011;61816;53.582;10.096;2023-08-06T13:01:40;12.20;;;7.82;;
73550;SDS011;61816;53.582;10.096;2023-08-06T13:04:05;13.45;;;7.47;;
73550;SDS011;61816;53.582;10.096;2023-08-06T13:06:31;11.13;;;6.82;;
73550;SDS011;61816;53.582;10.096;2023-08-06T13:09:01;9.73;;;7.05;;
73550;SDS011;61816;53.582;10.096;2023-08-06T13:11:27;15.20;;;7.85;;
73550;SDS011;61816;53.582;10.096;2023-08-06T13:13:52;15.73;;;8.15;;
73550;SDS011;61816;53.582;10.096;2023-08-06T13:16:17;14.20;;;8.75;;
73550;SDS011;61816;53.582;10.096;2023-08-06T13:18:43;12.25;;;7.10;;
73550;SDS011;61816;53.582;10.096;2023-08-06T13:21:08;15.10;;;8.13;;
73550;SDS011;61816;53.582;10.096;2023-08-06T13:23:34;13.63;;;8.07;;
73550;SDS011;61816;53.582;10.096;2023-08-06T13:25:59;17.17;;;8.45;;
73550;SDS011;61816;53.582;10.096;2023-08-06T13:28:25;10.27;;;6.68;;
73550;SDS011;61816;53.582;10.096;2023-08-06T13:30:50;14.55;;;7.13;;
73550;SDS011;61816;53.582;10.096;2023-08-06T13:33:15;15.25;;;8.25;;
73550;SDS011;61816;53.582;10.096;2023-08-06T13:35:41;13.00;;;7.32;;
73550;SDS011;61816;53.582;10.096;2023-08-06T13:38:06;13.68;;;6.80;;
73550;SDS011;61816;53.582;10.096;2023-08-06T13:40:32;16.25;;;6.95;;
73550;SDS011;61816;53.582;10.096;2023-08-06T13:42:59;15.18;;;6.05;;
73550;SDS011;61816;53.582;10.096;2023-08-06T13:45:25;11.93;;;5.95;;
73550;SDS011;61816;53.582;10.096;2023-08-06T13:47:50;12.35;;;5.63;;
73550;SDS011;61816;53.582;10.096;2023-08-06T13:50:15;16.55;;;5.72;;
73550;SDS011;61816;53.582;10.096;2023-08-06T13:52:41;13.90;;;6.32;;
73550;SDS011;61816;53.582;10.096;2023-08-06T13:55:06;13.50;;;7.60;;
73550;SDS011;61816;53.582;10.096;2023-08-06T13:57:33;15.20;;;5.57;;
73550;SDS011;61816;53.582;10.096;2023-08-06T13:59:59;11.90;;;5.22;;
73550;SDS011;61816;53.582;10.096;2023-08-06T14:02:24;9.95;;;4.20;;
73550;SDS011;61816;53.582;10.096;2023-08-06T14:04:51;8.70;;;4.18;;
73550;SDS011;61816;53.582;10.096;2023-08-06T14:07:17;15.27;;;4.32;;
73550;SDS011;61816;53.582;10.096;2023-08-06T14:09:42;10.18;;;4.57;;
73550;SDS011;61816;53.582;10.096;2023-08-06T14:12:09;9.43;;;4.30;;
73550;SDS011;61816;53.582;10.096;2023-08-06T14:14:35;13.60;;;4.50;;
73550;SDS011;61816;53.582;10.096;2023-08-06T14:17:00;12.30;;;4.60;;
73550;SDS011;61816;53.582;10.096;2023-08-06T14:19:25;10.43;;;3.58;;
73550;SDS011;61816;53.582;10.096;2023-08-06T14:21:51;7.63;;;3.65;;
73550;SDS011;61816;53.582;10.096;2023-08-06T14:24:16;14.65;;;4.80;;